sensor_id;sensor_type;location;lat;lon;timestamp;pressure;altitude;pressure_sealevel;temperature;humidity
18858;BME280;9558;50.178;8.370;2023-02-17T00:01:12;98896.56;;;6.07;100.00
18858;BME280;9558;50.178;8.370;2023-02-17T00:03:39;98897.38;;;6.07;100.00
18858;BME280;9558;50.178;8.370;2023-02-17T00:06:06;98906.72;;;6.08;100.00
18858;BME280;9558;50.178;8.370;2023-02-17T00:08:33;98907.53;;;6.09;100.00
18858;BME280;9558;50.178;8.370;2023-02-17T00:11:01;98906.72;;;6.08;100.00
18858;BME280;9558;50.178;8.370;2023-02-17T00:13:28;98906.59;;;6.10;100.00
18858;BME280;9558;50.178;8.370;2023-02-17T00:15:54;98905.91;;;6.08;100.00
18858;BME280;9558;50.178;8.370;2023-02-17T00:18:21;98902.66;;;6.05;100.00
18858;BME280;9558;50.178;8.370;2023-02-17T00:20:48;98898.69;;;6.01;100.00
18858;BME280;9558;50.178;8.370;2023-02-17T00:23:15;98894.53;;;6.00;100.00
18858;BME280;9558;50.178;8.370;2023-02-17T00:25:41;98897.22;;;5.99;100.00
18858;BME280;9558;50.178;8.370;2023-02-17T00:28:09;98892.22;;;5.97;100.00
18858;BME280;9558;50.178;8.370;2023-02-17T00:30:36;98889.66;;;5.97;100.00
18858;BME280;9558;50.178;8.370;2023-02-17T00:33:03;98889.66;;;5.97;100.00
18858;BME280;9558;50.178;8.370;2023-02-17T00:35:29;98893.03;;;5.98;100.00
18858;BME280;9558;50.178;8.370;2023-02-17T00:37:56;98898.25;;;5.96;100.00
18858;BME280;9558;50.178;8.370;2023-02-17T00:40:22;98899.91;;;5.97;100.00
18858;BME280;9558;50.178;8.370;2023-02-17T00:42:49;98895.91;;;6.04;100.00
18858;BME280;9558;50.178;8.370;2023-02-17T00:45:17;98904.81;;;6.00;100.00
18858;BME280;9558;50.178;8.370;2023-02-17T00:47:43;98904.81;;;6.00;100.00
18858;BME280;9558;50.178;8.370;2023-02-17T00:50:10;98904.81;;;6.00;100.00
18858;BME280;9558;50.178;8.370;2023-02-17T00:52:36;98904.81;;;6.00;100.00
18858;BME280;9558;50.178;8.370;2023-02-17T00:55:03;98898.81;;;6.00;100.00
18858;BME280;9558;50.178;8.370;2023-02-17T00:57:30;98905.59;;;6.01;100.00
18858;BME280;9558;50.178;8.370;2023-02-17T00:59:57;98899.66;;;6.00;100.00
18858;BME280;9558;50.178;8.370;2023-02-17T01:02:25;98904.66;;;6.02;100.00
18858;BME280;9558;50.178;8.370;2023-02-17T01:04:51;98897.75;;;6.02;100.00
18858;BME280;9558;50.178;8.370;2023-02-17T01:07:18;98903.72;;;6.03;100.00
18858;BME280;9558;50.178;8.370;2023-02-17T01:09:44;98906.41;;;6.01;100.00
18858;BME280;9558;50.178;8.370;2023-02-17T01:12:11;98897.75;;;6.02;100.00
18858;BME280;9558;50.178;8.370;2023-02-17T01:14:38;98898.56;;;6.03;100.00
18858;BME280;9558;50.178;8.370;2023-02-17T01:17:04;98902.09;;;6.02;100.00
18858;BME280;9558;50.178;8.370;2023-02-17T01:19:32;98902.22;;;6.00;100.00
18858;BME280;9558;50.178;8.370;2023-02-17T01:21:59;98902.22;;;6.00;100.00
18858;BME280;9558;50.178;8.370;2023-02-17T01:24:25;98900.59;;;5.99;100.00
18858;BME280;9558;50.178;8.370;2023-02-17T01:26:51;98899.66;;;6.00;100.00
18858;BME280;9558;50.178;8.370;2023-02-17T01:29:18;98894.53;;;6.00;100.00
18858;BME280;9558;50.178;8.370;2023-02-17T01:31:44;98892.88;;;5.99;100.00
18858;BME280;9558;50.178;8.370;2023-02-17T01:34:11;98886.81;;;6.00;100.00
18858;BME280;9558;50.178;8.370;2023-02-17T01:36:39;98880.47;;;6.04;100.00
18858;BME280;9558;50.178;8.370;2023-02-17T01:39:05;98878.00;;;6.03;100.00
18858;BME280;9558;50.178;8.370;2023-02-17T01:41:32;98877.91;;;6.04;100.00
18858;BME280;9558;50.178;8.370;2023-02-17T01:44:08;98875.34;;;6.04;100.00
18858;BME280;9558;50.178;8.370;2023-02-17T01:46:36;98860.72;;;6.05;100.00
18858;BME280;9558;50.178;8.370;2023-02-17T01:49:05;98868.31;;;6.07;100.00
18858;BME280;9558;50.178;8.370;2023-02-17T01:51:38;98868.31;;;6.07;100.00
18858;BME280;9558;50.178;8.370;2023-02-17T01:54:10;98866.41;;;6.09;100.00
18858;BME280;9558;50.178;8.370;2023-02-17T01:56:40;98857.75;;;6.10;100.00
18858;BME280;9558;50.178;8.370;2023-02-17T01:59:11;98856.03;;;6.10;100.00
18858;BME280;9558;50.178;8.370;2023-02-17T02:01:39;98852.50;;;6.11;100.00
18858;BME280;9558;50.178;8.370;2023-02-17T02:04:06;98839.78;;;6.10;100.00
18858;BME280;9558;50.178;8.370;2023-02-17T02:06:35;98841.53;;;6.09;100.00
18858;BME280;9558;50.178;8.370;2023-02-17T02:09:07;98838.16;;;6.09;100.00
18858;BME280;9558;50.178;8.370;2023-02-17T02:11:34;98832.06;;;6.10;100.00
18858;BME280;9558;50.178;8.370;2023-02-17T02:14:03;98821.78;;;6.10;100.00
18858;BME280;9558;50.178;8.370;2023-02-17T02:16:35;98826.94;;;6.10;100.00
18858;BME280;9558;50.178;8.370;2023-02-17T02:19:08;98820.84;;;6.11;100.00
18858;BME280;9558;50.178;8.370;2023-02-17T02:21:49;98819.91;;;6.12;100.00
18858;BME280;9558;50.178;8.370;2023-02-17T02:24:31;98819.22;;;6.10;100.00
18858;BME280;9558;50.178;8.370;2023-02-17T02:27:28;98821.78;;;6.10;100.00
18858;BME280;9558;50.178;8.370;2023-02-17T02:30:07;98822.84;;;6.07;100.00
18858;BME280;9558;50.178;8.370;2023-02-17T02:32:55;98811.78;;;6.07;100.00
18858;BME280;9558;50.178;8.370;2023-02-17T02:35:28;98812.34;;;6.10;100.00
18858;BME280;9558;50.178;8.370;2023-02-17T02:38:00;98801.22;;;6.10;100.00
18858;BME280;9558;50.178;8.370;2023-02-17T02:40:31;98796.09;;;6.10;100.00
18858;BME280;9558;50.178;8.370;2023-02-17T02:43:00;98796.09;;;6.10;100.00
18858;BME280;9558;50.178;8.370;2023-02-17T02:45:28;98798.53;;;6.11;100.00
18858;BME280;9558;50.178;8.370;2023-02-17T02:47:56;98792.31;;;6.14;100.00
18858;BME280;9558;50.178;8.370;2023-02-17T02:50:30;98794.22;;;6.12;100.00
18858;BME280;9558;50.178;8.370;2023-02-17T02:53:08;98793.38;;;6.11;100.00
18858;BME280;9558;50.178;8.370;2023-02-17T02:55:49;98787.31;;;6.12;100.00
18858;BME280;9558;50.178;8.370;2023-02-17T02:58:19;98794.91;;;6.14;100.00
18858;BME280;9558;50.178;8.370;2023-02-17T03:00:54;98797.47;;;6.14;100.00
18858;BME280;9558;50.178;8.370;2023-02-17T03:03:28;98793.25;;;6.13;100.00
18858;BME280;9558;50.178;8.370;2023-02-17T03:06:06;98799.09;;;6.15;100.00
18858;BME280;9558;50.178;8.370;2023-02-17T03:08:38;98797.47;;;6.14;100.00
18858;BME280;9558;50.178;8.370;2023-02-17T03:11:06;98794.63;;;6.17;100.00
18858;BME280;9558;50.178;8.370;2023-02-17T03:13:33;98793.00;;;6.16;100.00
18858;BME280;9558;50.178;8.370;2023-02-17T03:16:04;98785.19;;;6.17;100.00
18858;BME280;9558;50.178;8.370;2023-02-17T03:18:32;98785.03;;;6.19;100.00
18858;BME280;9558;50.178;8.370;2023-02-17T03:21:01;98793.69;;;6.18;100.00
18858;BME280;9558;50.178;8.370;2023-02-17T03:23:29;98785.84;;;6.19;100.00
18858;BME280;9558;50.178;8.370;2023-02-17T03:25:55;98787.63;;;6.19;100.00
18858;BME280;9558;50.178;8.370;2023-02-17T03:28:23;98785.03;;;6.19;100.00
18858;BME280;9558;50.178;8.370;2023-02-17T03:30:49;98773.94;;;6.18;100.00
18858;BME280;9558;50.178;8.370;2023-02-17T03:33:16;98785.72;;;6.21;100.00
18858;BME280;9558;50.178;8.370;2023-02-17T03:35:44;98781.50;;;6.20;100.00
18858;BME280;9558;50.178;8.370;2023-02-17T03:38:10;98785.84;;;6.19;100.00
18858;BME280;9558;50.178;8.370;2023-02-17T03:40:37;98776.38;;;6.20;100.00
18858;BME280;9558;50.178;8.370;2023-02-17T03:43:03;98778.81;;;6.21;100.00
18858;BME280;9558;50.178;8.370;2023-02-17T03:45:29;98779.63;;;6.22;100.00
18858;BME280;9558;50.178;8.370;2023-02-17T03:47:56;98777.06;;;6.22;100.00
18858;BME280;9558;50.178;8.370;2023-02-17T03:50:22;98771.00;;;6.23;100.00
18858;BME280;9558;50.178;8.370;2023-02-17T03:52:50;98777.06;;;6.22;100.00
18858;BME280;9558;50.178;8.370;2023-02-17T03:55:17;98771.00;;;6.23;100.00
18858;BME280;9558;50.178;8.370;2023-02-17T03:57:43;98782.06;;;6.23;100.00
18858;BME280;9558;50.178;8.370;2023-02-17T04:00:11;98781.00;;;6.26;100.00
18858;BME280;9558;50.178;8.370;2023-02-17T04:02:38;98775.59;;;6.29;100.00
18858;BME280;9558;50.178;8.370;2023-02-17T04:05:06;98779.09;;;6.28;100.00
18858;BME280;9558;50.178;8.370;2023-02-17T04:07:33;98785.59;;;6.32;100.00
18858;BME280;9558;50.178;8.370;2023-02-17T04:10:01;98779.25;;;6.36;100.00
18858;BME280;9558;50.178;8.370;2023-02-17T04:12:28;98781.28;;;6.43;100.00
18858;BME280;9558;50.178;8.370;2023-02-17T04:14:55;98772.09;;;6.50;100.00
18858;BME280;9558;50.178;8.370;2023-02-17T04:17:22;98778.59;;;6.54;100.00
18858;BME280;9558;50.178;8.370;2023-02-17T04:19:48;98772.66;;;6.63;100.00
18858;BME280;9558;50.178;8.370;2023-02-17T04:22:14;98774.03;;;6.67;100.00
18858;BME280;9558;50.178;8.370;2023-02-17T04:24:41;98769.94;;;6.74;100.00
18858;BME280;9558;50.178;8.370;2023-02-17T04:27:09;98771.28;;;6.79;100.00
18858;BME280;9558;50.178;8.370;2023-02-17T04:29:35;98781.47;;;6.80;100.00
18858;BME280;9558;50.178;8.370;2023-02-17T04:32:02;98777.78;;;6.83;100.00
18858;BME280;9558;50.178;8.370;2023-02-17T04:34:29;98782.25;;;6.81;100.00
18858;BME280;9558;50.178;8.370;2023-02-17T04:36:55;98786.47;;;6.82;100.00
18858;BME280;9558;50.178;8.370;2023-02-17T04:39:22;98781.31;;;6.82;100.00
18858;BME280;9558;50.178;8.370;2023-02-17T04:41:48;98782.13;;;6.82;100.00
18858;BME280;9558;50.178;8.370;2023-02-17T04:44:16;98782.94;;;6.83;100.00
18858;BME280;9558;50.178;8.370;2023-02-17T04:46:43;98777.78;;;6.83;100.00
18858;BME280;9558;50.178;8.370;2023-02-17T04:49:09;98774.41;;;6.82;100.00
18858;BME280;9558;50.178;8.370;2023-02-17T04:51:36;98773.75;;;6.80;100.00
18858;BME280;9558;50.178;8.370;2023-02-17T04:54:02;98779.69;;;6.81;100.00
18858;BME280;9558;50.178;8.370;2023-02-17T04:56:29;98779.56;;;6.82;100.00
18858;BME280;9558;50.178;8.370;2023-02-17T04:58:55;98782.13;;;6.82;100.00
18858;BME280;9558;50.178;8.370;2023-02-17T05:01:23;98774.28;;;6.84;100.00
18858;BME280;9558;50.178;8.370;2023-02-17T05:03:50;98776.97;;;6.82;100.00
18858;BME280;9558;50.178;8.370;2023-02-17T05:06:16;98774.53;;;6.81;100.00
18858;BME280;9558;50.178;8.370;2023-02-17T05:08:43;98774.94;;;6.86;100.00
18858;BME280;9558;50.178;8.370;2023-02-17T05:11:09;98773.47;;;6.83;100.00
18858;BME280;9558;50.178;8.370;2023-02-17T05:13:36;98775.63;;;6.88;100.00
18858;BME280;9558;50.178;8.370;2023-02-17T05:16:02;98770.75;;;6.85;100.00
18858;BME280;9558;50.178;8.370;2023-02-17T05:18:30;98779.13;;;6.87;100.00
18858;BME280;9558;50.178;8.370;2023-02-17T05:20:57;98778.88;;;6.90;100.00
18858;BME280;9558;50.178;8.370;2023-02-17T05:23:23;98778.88;;;6.90;100.00
18858;BME280;9558;50.178;8.370;2023-02-17T05:25:49;98777.78;;;6.92;100.00
18858;BME280;9558;50.178;8.370;2023-02-17T05:28:16;98778.34;;;6.96;100.00
18858;BME280;9558;50.178;8.370;2023-02-17T05:30:43;98783.06;;;7.01;100.00
18858;BME280;9558;50.178;8.370;2023-02-17T05:33:09;98787.94;;;7.04;100.00
18858;BME280;9558;50.178;8.370;2023-02-17T05:35:37;98786.84;;;7.06;100.00
18858;BME280;9558;50.178;8.370;2023-02-17T05:38:04;98790.78;;;7.11;100.00
18858;BME280;9558;50.178;8.370;2023-02-17T05:40:30;98790.66;;;7.12;100.00
18858;BME280;9558;50.178;8.370;2023-02-17T05:42:57;98787.25;;;7.12;100.00
18858;BME280;9558;50.178;8.370;2023-02-17T05:45:23;98788.88;;;7.13;100.00
18858;BME280;9558;50.178;8.370;2023-02-17T05:47:50;98791.84;;;7.18;100.00
18858;BME280;9558;50.178;8.370;2023-02-17T05:50:16;98782.91;;;7.22;100.00
18858;BME280;9558;50.178;8.370;2023-02-17T05:52:44;98782.91;;;7.22;100.00
18858;BME280;9558;50.178;8.370;2023-02-17T05:55:11;98779.66;;;7.20;100.00
18858;BME280;9558;50.178;8.370;2023-02-17T05:57:37;98775.84;;;7.24;100.00
18858;BME280;9558;50.178;8.370;2023-02-17T06:00:05;98781.00;;;7.24;100.00
18858;BME280;9558;50.178;8.370;2023-02-17T06:02:31;98785.06;;;7.26;100.00
18858;BME280;9558;50.178;8.370;2023-02-17T06:04:58;98794.56;;;7.26;100.00
18858;BME280;9558;50.178;8.370;2023-02-17T06:07:24;98779.63;;;7.30;100.00
18858;BME280;9558;50.178;8.370;2023-02-17T06:09:52;98780.44;;;7.30;100.00
18858;BME280;9558;50.178;8.370;2023-02-17T06:12:19;98777.06;;;7.30;100.00
18858;BME280;9558;50.178;8.370;2023-02-17T06:14:45;98769.34;;;7.30;100.00
18858;BME280;9558;50.178;8.370;2023-02-17T06:17:12;98770.13;;;7.30;100.00
18858;BME280;9558;50.178;8.370;2023-02-17T06:19:38;98769.88;;;7.33;100.00
18858;BME280;9558;50.178;8.370;2023-02-17T06:22:05;98777.59;;;7.33;100.00
18858;BME280;9558;50.178;8.370;2023-02-17T06:24:31;98783.97;;;7.39;100.00
18858;BME280;9558;50.178;8.370;2023-02-17T06:26:59;98782.34;;;7.38;100.00
18858;BME280;9558;50.178;8.370;2023-02-17T06:29:26;98781.25;;;7.40;100.00
18858;BME280;9558;50.178;8.370;2023-02-17T06:31:52;98782.84;;;7.41;100.00
18858;BME280;9558;50.178;8.370;2023-02-17T06:34:19;98773.91;;;7.46;100.00
18858;BME280;9558;50.178;8.370;2023-02-17T06:36:45;98779.59;;;7.49;100.00
18858;BME280;9558;50.178;8.370;2023-02-17T06:39:12;98784.59;;;7.51;100.00
18858;BME280;9558;50.178;8.370;2023-02-17T06:41:39;98790.28;;;7.54;100.00
18858;BME280;9558;50.178;8.370;2023-02-17T06:44:08;98802.06;;;7.57;100.00
18858;BME280;9558;50.178;8.370;2023-02-17T06:46:35;98802.31;;;7.64;100.00
18858;BME280;9558;50.178;8.370;2023-02-17T06:49:01;98802.47;;;7.62;100.00
18858;BME280;9558;50.178;8.370;2023-02-17T06:51:28;98804.09;;;7.63;100.00
18858;BME280;9558;50.178;8.370;2023-02-17T06:53:54;98807.47;;;7.64;100.00
18858;BME280;9558;50.178;8.370;2023-02-17T06:56:21;98814.13;;;7.66;100.00
18858;BME280;9558;50.178;8.370;2023-02-17T06:58:47;98809.63;;;7.68;100.00
18858;BME280;9558;50.178;8.370;2023-02-17T07:01:17;98816.13;;;7.72;100.00
18858;BME280;9558;50.178;8.370;2023-02-17T07:03:44;98819.34;;;7.74;100.00
18858;BME280;9558;50.178;8.370;2023-02-17T07:06:11;98817.75;;;7.73;100.00
18858;BME280;9558;50.178;8.370;2023-02-17T07:08:37;98814.75;;;7.78;100.00
18858;BME280;9558;50.178;8.370;2023-02-17T07:11:04;98812.97;;;7.78;100.00
18858;BME280;9558;50.178;8.370;2023-02-17T07:13:31;98807.16;;;7.76;100.00
18858;BME280;9558;50.178;8.370;2023-02-17T07:15:58;98805.38;;;7.77;100.00
18858;BME280;9558;50.178;8.370;2023-02-17T07:18:26;98806.63;;;7.73;100.00
18858;BME280;9558;50.178;8.370;2023-02-17T07:20:52;98807.16;;;7.76;100.00
18858;BME280;9558;50.178;8.370;2023-02-17T07:23:19;98800.91;;;7.79;100.00
18858;BME280;9558;50.178;8.370;2023-02-17T07:25:45;98805.38;;;7.77;100.00
18858;BME280;9558;50.178;8.370;2023-02-17T07:28:12;98798.84;;;7.83;100.00
18858;BME280;9558;50.178;8.370;2023-02-17T07:30:39;98799.09;;;7.89;100.00
18858;BME280;9558;50.178;8.370;2023-02-17T07:33:06;98797.03;;;7.93;100.00
18858;BME280;9558;50.178;8.370;2023-02-17T07:35:34;98801.09;;;7.95;100.00
18858;BME280;9558;50.178;8.370;2023-02-17T07:38:00;98801.66;;;7.99;100.00
18858;BME280;9558;50.178;8.370;2023-02-17T07:40:27;98798.50;;;8.05;100.00
18858;BME280;9558;50.178;8.370;2023-02-17T07:42:55;98800.78;;;8.08;100.00
18858;BME280;9558;50.178;8.370;2023-02-17T07:45:22;98805.38;;;8.15;100.00
18858;BME280;9558;50.178;8.370;2023-02-17T07:47:48;98809.41;;;8.17;100.00
18858;BME280;9558;50.178;8.370;2023-02-17T07:50:15;98809.66;;;8.24;100.00
18858;BME280;9558;50.178;8.370;2023-02-17T07:52:43;98810.19;;;8.27;100.00
18858;BME280;9558;50.178;8.370;2023-02-17T07:55:10;98806.34;;;8.31;100.00
18858;BME280;9558;50.178;8.370;2023-02-17T07:57:36;98805.94;;;8.36;100.00
18858;BME280;9558;50.178;8.370;2023-02-17T08:00:04;98819.03;;;8.43;100.00
18858;BME280;9558;50.178;8.370;2023-02-17T08:02:31;98815.78;;;8.51;100.00
18858;BME280;9558;50.178;8.370;2023-02-17T08:04:57;98817.28;;;8.53;100.00
18858;BME280;9558;50.178;8.370;2023-02-17T08:07:24;98798.75;;;8.58;100.00
18858;BME280;9558;50.178;8.370;2023-02-17T08:09:52;98808.63;;;8.62;100.00
18858;BME280;9558;50.178;8.370;2023-02-17T08:12:36;98799.94;;;8.63;100.00
18858;BME280;9558;50.178;8.370;2023-02-17T08:15:31;98807.88;;;8.70;100.00
18858;BME280;9558;50.178;8.370;2023-02-17T08:17:58;98799.59;;;8.76;100.00
18858;BME280;9558;50.178;8.370;2023-02-17T08:20:25;98800.38;;;8.77;100.00
18858;BME280;9558;50.178;8.370;2023-02-17T08:22:51;98798.97;;;8.82;100.00
18858;BME280;9558;50.178;8.370;2023-02-17T08:25:19;98808.84;;;8.87;100.00
18858;BME280;9558;50.178;8.370;2023-02-17T08:27:46;98807.59;;;8.91;100.00
18858;BME280;9558;50.178;8.370;2023-02-17T08:30:13;98802.13;;;8.94;100.00
18858;BME280;9558;50.178;8.370;2023-02-17T08:32:39;98809.75;;;8.96;100.00
18858;BME280;9558;50.178;8.370;2023-02-17T08:35:06;98807.03;;;8.97;100.00
18858;BME280;9558;50.178;8.370;2023-02-17T08:37:33;98795.56;;;9.00;100.00
18858;BME280;9558;50.178;8.370;2023-02-17T08:39:59;98787.81;;;9.00;100.00
18858;BME280;9558;50.178;8.370;2023-02-17T08:42:30;98793.81;;;9.01;100.00
18858;BME280;9558;50.178;8.370;2023-02-17T08:44:57;98802.34;;;9.01;100.00
18858;BME280;9558;50.178;8.370;2023-02-17T08:47:23;98809.16;;;9.02;100.00
18858;BME280;9558;50.178;8.370;2023-02-17T08:49:50;98809.81;;;9.04;100.00
18858;BME280;9558;50.178;8.370;2023-02-17T08:52:16;98808.84;;;9.05;100.00
18858;BME280;9558;50.178;8.370;2023-02-17T08:54:43;98805.47;;;9.05;100.00
18858;BME280;9558;50.178;8.370;2023-02-17T08:57:09;98798.69;;;9.04;100.00
18858;BME280;9558;50.178;8.370;2023-02-17T08:59:37;98802.88;;;9.05;100.00
18858;BME280;9558;50.178;8.370;2023-02-17T09:02:04;98798.00;;;9.02;100.00
18858;BME280;9558;50.178;8.370;2023-02-17T09:04:31;98800.22;;;8.96;100.00
18858;BME280;9558;50.178;8.370;2023-02-17T09:06:57;98811.06;;;9.00;100.00
18858;BME280;9558;50.178;8.370;2023-02-17T09:09:25;98815.94;;;9.03;100.00
18858;BME280;9558;50.178;8.370;2023-02-17T09:11:52;98812.38;;;9.04;100.00
18858;BME280;9558;50.178;8.370;2023-02-17T09:14:20;98812.91;;;9.08;100.00
18858;BME280;9558;50.178;8.370;2023-02-17T09:16:49;98816.16;;;9.10;100.00
18858;BME280;9558;50.178;8.370;2023-02-17T09:19:16;98824.72;;;9.10;100.00
18858;BME280;9558;50.178;8.370;2023-02-17T09:21:42;98818.56;;;9.11;100.00
18858;BME280;9558;50.178;8.370;2023-02-17T09:24:09;98819.41;;;9.12;100.00
18858;BME280;9558;50.178;8.370;2023-02-17T09:26:35;98822.47;;;9.15;100.00
18858;BME280;9558;50.178;8.370;2023-02-17T09:29:02;98821.69;;;9.15;100.00
18858;BME280;9558;50.178;8.370;2023-02-17T09:31:29;98829.91;;;9.19;100.00
18858;BME280;9558;50.178;8.370;2023-02-17T09:33:58;98832.22;;;9.22;100.00
18858;BME280;9558;50.178;8.370;2023-02-17T09:36:27;98838.19;;;9.22;100.00
18858;BME280;9558;50.178;8.370;2023-02-17T09:38:54;98835.47;;;9.24;100.00
18858;BME280;9558;50.178;8.370;2023-02-17T09:41:22;98828.09;;;9.29;100.00
18858;BME280;9558;50.178;8.370;2023-02-17T09:43:59;98827.78;;;9.32;100.00
18858;BME280;9558;50.178;8.370;2023-02-17T09:46:29;98822.97;;;9.37;100.00
18858;BME280;9558;50.178;8.370;2023-02-17T09:49:01;98831.06;;;9.42;100.00
18858;BME280;9558;50.178;8.370;2023-02-17T09:51:32;98836.88;;;9.44;100.00
18858;BME280;9558;50.178;8.370;2023-02-17T09:54:04;98833.19;;;9.47;100.00
18858;BME280;9558;50.178;8.370;2023-02-17T09:56:35;98841.78;;;9.47;100.00
18858;BME280;9558;50.178;8.370;2023-02-17T09:59:07;98840.78;;;9.48;100.00
18858;BME280;9558;50.178;8.370;2023-02-17T10:01:37;98840.38;;;9.53;100.00
18858;BME280;9558;50.178;8.370;2023-02-17T10:04:10;98837.47;;;9.56;100.00
18858;BME280;9558;50.178;8.370;2023-02-17T10:06:40;98841.00;;;9.55;100.00
18858;BME280;9558;50.178;8.370;2023-02-17T10:09:13;98835.22;;;9.61;100.00
18858;BME280;9558;50.178;8.370;2023-02-17T10:11:47;98835.22;;;9.61;100.00
18858;BME280;9558;50.178;8.370;2023-02-17T10:14:20;98827.38;;;9.71;100.00
18858;BME280;9558;50.178;8.370;2023-02-17T10:16:50;98836.97;;;9.79;100.00
18858;BME280;9558;50.178;8.370;2023-02-17T10:19:24;98829.06;;;9.89;100.00
18858;BME280;9558;50.178;8.370;2023-02-17T10:21:55;98830.75;;;9.98;100.00
18858;BME280;9558;50.178;8.370;2023-02-17T10:24:23;98829.81;;;10.07;100.00
18858;BME280;9558;50.178;8.370;2023-02-17T10:26:59;98834.69;;;10.18;100.00
18858;BME280;9558;50.178;8.370;2023-02-17T10:29:37;98836.69;;;10.25;100.00
18858;BME280;9558;50.178;8.370;2023-02-17T10:32:20;98839.00;;;10.36;100.00
18858;BME280;9558;50.178;8.370;2023-02-17T10:35:11;98838.69;;;10.47;100.00
18858;BME280;9558;50.178;8.370;2023-02-17T10:37:44;98837.75;;;10.57;100.00
18858;BME280;9558;50.178;8.370;2023-02-17T10:40:18;98839.91;;;10.69;100.00
18858;BME280;9558;50.178;8.370;2023-02-17T10:42:47;98844.59;;;10.74;100.00
18858;BME280;9558;50.178;8.370;2023-02-17T10:45:22;98843.97;;;10.80;100.00
18858;BME280;9558;50.178;8.370;2023-02-17T10:47:54;98839.59;;;10.81;100.00
18858;BME280;9558;50.178;8.370;2023-02-17T10:50:24;98842.66;;;10.84;100.00
18858;BME280;9558;50.178;8.370;2023-02-17T10:52:54;98842.03;;;10.91;100.00
18858;BME280;9558;50.178;8.370;2023-02-17T10:55:32;98837.19;;;11.04;100.00
18858;BME280;9558;50.178;8.370;2023-02-17T10:58:05;98833.63;;;11.05;100.00
18858;BME280;9558;50.178;8.370;2023-02-17T11:00:37;98823.28;;;11.13;100.00
18858;BME280;9558;50.178;8.370;2023-02-17T11:03:03;98829.88;;;11.16;100.00
18858;BME280;9558;50.178;8.370;2023-02-17T11:05:33;98826.50;;;11.23;100.00
18858;BME280;9558;50.178;8.370;2023-02-17T11:08:01;98823.75;;;11.25;100.00
18858;BME280;9558;50.178;8.370;2023-02-17T11:10:32;98828.13;;;11.24;100.00
18858;BME280;9558;50.178;8.370;2023-02-17T11:13:01;98827.63;;;11.21;100.00
18858;BME280;9558;50.178;8.370;2023-02-17T11:15:33;98820.00;;;11.19;100.00
18858;BME280;9558;50.178;8.370;2023-02-17T11:18:00;98813.72;;;11.22;100.00
18858;BME280;9558;50.178;8.370;2023-02-17T11:20:36;98816.13;;;11.23;100.00
18858;BME280;9558;50.178;8.370;2023-02-17T11:23:06;98805.44;;;11.27;100.00
18858;BME280;9558;50.178;8.370;2023-02-17T11:25:35;98819.53;;;11.32;100.00
18858;BME280;9558;50.178;8.370;2023-02-17T11:28:05;98808.16;;;11.41;100.00
18858;BME280;9558;50.178;8.370;2023-02-17T11:30:38;98803.81;;;11.42;100.00
18858;BME280;9558;50.178;8.370;2023-02-17T11:33:12;98805.22;;;11.53;100.00
18858;BME280;9558;50.178;8.370;2023-02-17T11:35:48;98798.22;;;11.70;100.00
18858;BME280;9558;50.178;8.370;2023-02-17T11:38:17;98797.22;;;11.79;100.00
18858;BME280;9558;50.178;8.370;2023-02-17T11:40:51;98795.25;;;11.89;100.00
18858;BME280;9558;50.178;8.370;2023-02-17T11:43:18;98791.19;;;12.03;100.00
18858;BME280;9558;50.178;8.370;2023-02-17T11:45:53;98807.16;;;12.15;100.00
18858;BME280;9558;50.178;8.370;2023-02-17T11:48:39;98787.59;;;12.36;100.00
18858;BME280;9558;50.178;8.370;2023-02-17T11:51:15;98790.44;;;12.49;100.00
18858;BME280;9558;50.178;8.370;2023-02-17T11:53:51;98797.94;;;12.67;100.00
18858;BME280;9558;50.178;8.370;2023-02-17T11:56:28;98798.06;;;12.74;100.00
18858;BME280;9558;50.178;8.370;2023-02-17T11:59:07;98787.88;;;12.87;100.00
18858;BME280;9558;50.178;8.370;2023-02-17T12:01:52;98789.16;;;12.91;100.00
18858;BME280;9558;50.178;8.370;2023-02-17T12:04:28;98777.19;;;13.05;100.00
18858;BME280;9558;50.178;8.370;2023-02-17T12:07:19;98788.50;;;13.12;100.00
18858;BME280;9558;50.178;8.370;2023-02-17T12:09:56;98779.09;;;13.11;100.00
18858;BME280;9558;50.178;8.370;2023-02-17T12:12:33;98781.50;;;13.13;100.00
18858;BME280;9558;50.178;8.370;2023-02-17T12:15:11;98771.09;;;13.13;100.00
18858;BME280;9558;50.178;8.370;2023-02-17T12:17:50;98778.72;;;13.14;100.00
18858;BME280;9558;50.178;8.370;2023-02-17T12:20:32;98784.09;;;13.13;100.00
18858;BME280;9558;50.178;8.370;2023-02-17T12:23:12;98779.91;;;13.12;100.00
18858;BME280;9558;50.178;8.370;2023-02-17T12:25:48;98773.63;;;13.06;100.00
18858;BME280;9558;50.178;8.370;2023-02-17T12:28:39;98765.66;;;13.08;100.00
18858;BME280;9558;50.178;8.370;2023-02-17T12:31:16;98763.50;;;13.11;100.00
18858;BME280;9558;50.178;8.370;2023-02-17T12:33:56;98747.72;;;13.13;100.00
18858;BME280;9558;50.178;8.370;2023-02-17T12:36:28;98755.50;;;13.13;100.00
18858;BME280;9558;50.178;8.370;2023-02-17T12:39:00;98749.63;;;13.19;100.00
18858;BME280;9558;50.178;8.370;2023-02-17T12:41:32;98746.03;;;13.20;100.00
18858;BME280;9558;50.178;8.370;2023-02-17T12:44:03;98743.34;;;13.28;100.00
18858;BME280;9558;50.178;8.370;2023-02-17T12:46:34;98747.38;;;13.31;100.00
18858;BME280;9558;50.178;8.370;2023-02-17T12:49:07;98748.84;;;13.34;100.00
18858;BME280;9558;50.178;8.370;2023-02-17T12:51:38;98749.19;;;13.30;100.00
18858;BME280;9558;50.178;8.370;2023-02-17T12:54:14;98758.59;;;13.31;100.00
18858;BME280;9558;50.178;8.370;2023-02-17T12:56:49;98764.50;;;13.25;100.00
18858;BME280;9558;50.178;8.370;2023-02-17T12:59:21;98756.53;;;13.27;100.00
18858;BME280;9558;50.178;8.370;2023-02-17T13:01:56;98751.31;;;13.27;100.00
18858;BME280;9558;50.178;8.370;2023-02-17T13:04:25;98749.53;;;13.27;100.00
18858;BME280;9558;50.178;8.370;2023-02-17T13:06:57;98731.69;;;13.24;100.00
18858;BME280;9558;50.178;8.370;2023-02-17T13:09:31;98734.66;;;13.21;100.00
18858;BME280;9558;50.178;8.370;2023-02-17T13:12:13;98737.25;;;13.21;100.00
18858;BME280;9558;50.178;8.370;2023-02-17T13:14:43;98728.28;;;13.24;100.00
18858;BME280;9558;50.178;8.370;2023-02-17T13:17:23;98743.28;;;13.22;100.00
18858;BME280;9558;50.178;8.370;2023-02-17T13:20:02;98736.88;;;13.24;100.00